createdAt,value
2022-11-28T00:03:08.847Z,87.20
2022-11-28T00:08:12.079Z,87.88
2022-11-28T00:13:15.094Z,87.82
2022-11-28T00:18:19.359Z,87.16
2022-11-28T00:23:22.306Z,87.82
2022-11-28T00:28:25.588Z,88.84
2022-11-28T00:33:29.863Z,88.46
2022-11-28T00:38:32.974Z,89.15
2022-11-28T00:43:36.057Z,88.78
2022-11-28T00:48:40.393Z,89.63
2022-11-28T00:53:44.943Z,88.09
2022-11-28T00:58:49.680Z,88.47
2022-11-28T01:03:55.948Z,89.28
2022-11-28T01:09:00.298Z,89.16
2022-11-28T01:14:03.497Z,89.55
2022-11-28T01:19:08.529Z,89.11
2022-11-28T01:24:11.821Z,88.99
2022-11-28T01:29:14.983Z,88.06
2022-11-28T01:34:19.293Z,87.71
2022-11-28T01:39:22.228Z,89.01
2022-11-28T01:45:02.428Z,89.67
2022-11-28T01:50:08.780Z,89.62
2022-11-28T01:55:13.698Z,90.05
2022-11-28T02:00:20.265Z,89.64
2022-11-28T02:05:24.642Z,89.07
2022-11-28T02:10:30.287Z,88.54
2022-11-28T02:15:49.913Z,88.61
2022-11-28T02:21:16.819Z,89.15
2022-11-28T02:26:42.104Z,89.00
2022-11-28T02:32:14.852Z,90.03
2022-11-28T02:37:27.356Z,90.12
2022-11-28T02:42:37.022Z,90.61
2022-11-28T02:47:46.197Z,91.32
2022-11-28T02:52:53.179Z,91.17
2022-11-28T02:57:56.476Z,90.10
2022-11-28T03:03:24.442Z,88.12
2022-11-28T03:08:38.516Z,86.06
2022-11-28T03:13:50.221Z,85.42
2022-11-28T03:19:02.206Z,85.63
2022-11-28T03:24:11.832Z,85.51
2022-11-28T03:29:22.022Z,84.72
2022-11-28T03:34:32.978Z,85.02
2022-11-28T03:39:40.355Z,83.80
2022-11-28T03:44:49.880Z,84.38
2022-11-28T03:49:56.299Z,83.61
2022-11-28T03:55:04.808Z,83.07
2022-11-28T04:00:10.615Z,83.34
2022-11-28T04:05:23.769Z,84.53
2022-11-28T04:10:33.964Z,84.32
2022-11-28T04:15:42.714Z,84.10
2022-11-28T04:20:53.770Z,83.59
2022-11-28T04:26:01.726Z,84.12
2022-11-28T04:31:07.057Z,83.12
2022-11-28T04:36:13.857Z,83.58
2022-11-28T04:41:21.480Z,83.70
2022-11-28T04:46:28.713Z,83.14
2022-11-28T04:51:40.644Z,83.87
2022-11-28T04:56:48.697Z,83.97
2022-11-28T05:01:51.764Z,83.21
2022-11-28T05:07:04.321Z,84.58
2022-11-28T05:12:08.018Z,84.83
2022-11-28T05:17:13.465Z,85.33
2022-11-28T05:22:17.718Z,84.28
2022-11-28T05:27:20.633Z,84.52
2022-11-28T05:32:23.493Z,84.29
2022-11-28T05:37:27.883Z,83.57
2022-11-28T05:42:34.616Z,83.30
2022-11-28T05:47:37.549Z,84.26
2022-11-28T05:52:41.775Z,83.67
2022-11-28T05:57:44.664Z,84.02
2022-11-28T06:02:47.612Z,83.46
2022-11-28T06:07:51.998Z,82.98
2022-11-28T06:12:54.951Z,82.50
2022-11-28T06:17:57.891Z,82.91
2022-11-28T06:23:02.172Z,82.61
2022-11-28T06:28:05.328Z,82.60
2022-11-28T06:33:08.246Z,82.65
2022-11-28T06:38:14.331Z,83.23
2022-11-28T06:43:17.629Z,83.05
2022-11-28T06:48:20.949Z,82.41
2022-11-28T06:53:31.248Z,82.92
2022-11-28T06:58:34.677Z,82.32
2022-11-28T07:03:37.660Z,82.35
2022-11-28T07:08:42.927Z,82.17
2022-11-28T07:13:46.660Z,82.29
2022-11-28T07:18:50.221Z,82.30
2022-11-28T07:23:54.584Z,81.35
2022-11-28T07:28:58.349Z,81.93
2022-11-28T07:34:03.454Z,83.02
2022-11-28T07:39:09.431Z,80.75
2022-11-28T07:44:13.091Z,81.03
2022-11-28T07:49:16.348Z,82.55
2022-11-28T07:54:20.675Z,80.22
2022-11-28T07:59:23.672Z,80.53
2022-11-28T08:04:26.676Z,80.65
2022-11-28T08:09:32.612Z,80.69
2022-11-28T08:14:35.580Z,80.35
2022-11-28T08:19:38.556Z,80.68
2022-11-28T08:24:43.061Z,79.68
2022-11-28T08:29:50.475Z,80.33
2022-11-28T08:34:56.045Z,78.23
2022-11-28T08:40:00.352Z,76.16
2022-11-28T08:45:03.344Z,77.52
2022-11-28T08:50:07.858Z,77.05
2022-11-28T08:55:12.273Z,75.99
2022-11-28T09:00:16.629Z,76.67
2022-11-28T09:05:19.581Z,76.99
2022-11-28T09:10:24.897Z,77.29
2022-11-28T09:15:27.824Z,76.34
2022-11-28T09:20:30.748Z,76.50
2022-11-28T09:25:37.176Z,75.59
2022-11-28T09:30:40.162Z,75.75
2022-11-28T09:35:43.225Z,75.96
2022-11-28T09:40:47.777Z,75.34
2022-11-28T09:45:53.907Z,75.40
2022-11-28T09:51:01.754Z,75.45
2022-11-28T09:56:12.768Z,76.41
2022-11-28T10:01:22.356Z,75.55
2022-11-28T10:06:29.821Z,75.36
2022-11-28T10:11:45.932Z,74.92
2022-11-28T10:16:59.737Z,75.40
2022-11-28T10:22:06.232Z,75.21
2022-11-28T10:27:14.668Z,74.79
2022-11-28T10:32:20.355Z,74.65
2022-11-28T10:37:27.254Z,74.07
2022-11-28T10:42:43.612Z,74.29
2022-11-28T10:48:07.434Z,73.70
2022-11-28T10:53:36.562Z,75.22
2022-11-28T10:58:47.960Z,73.77
2022-11-28T11:03:51.224Z,73.53
2022-11-28T11:08:54.095Z,73.21
2022-11-28T11:14:02.160Z,73.01
2022-11-28T11:19:05.039Z,73.10
2022-11-28T11:24:18.685Z,71.97
2022-11-28T11:29:30.674Z,72.45
2022-11-28T11:34:39.049Z,72.37
2022-11-28T11:39:49.482Z,72.80
2022-11-28T11:44:54.318Z,72.64
2022-11-28T11:50:05.376Z,71.96
2022-11-28T11:55:14.891Z,72.55
2022-11-28T12:00:22.000Z,72.45
2022-11-28T12:05:46.316Z,70.73
2022-11-28T12:11:01.890Z,70.41
2022-11-28T12:16:12.218Z,71.10
2022-11-28T12:21:21.236Z,70.12
2022-11-28T12:26:33.906Z,71.47
2022-11-28T12:31:50.945Z,71.77
2022-11-28T12:37:01.371Z,70.78
2022-11-28T12:42:30.770Z,71.78
2022-11-28T12:47:44.175Z,70.41
2022-11-28T12:52:54.522Z,71.54
2022-11-28T12:58:09.039Z,70.81
2022-11-28T13:03:29.759Z,70.56
2022-11-28T13:09:03.021Z,71.57
2022-11-28T13:14:11.238Z,71.69
2022-11-28T13:19:28.539Z,70.95
2022-11-28T13:24:38.253Z,71.90
2022-11-28T13:29:47.327Z,72.19
2022-11-28T13:34:52.003Z,72.47
2022-11-28T13:40:00.851Z,72.64
2022-11-28T13:45:08.226Z,72.87
2022-11-28T13:50:34.938Z,73.37
2022-11-28T13:55:40.663Z,73.51
2022-11-28T14:00:44.350Z,73.16
2022-11-28T14:05:55.428Z,73.98
2022-11-28T14:11:24.236Z,73.89
2022-11-28T14:16:52.167Z,73.62
2022-11-28T14:22:11.027Z,74.27
2022-11-28T14:27:21.067Z,74.75
2022-11-28T14:32:36.709Z,74.29
2022-11-28T14:37:59.540Z,74.95
2022-11-28T14:43:22.675Z,74.93
2022-11-28T14:48:31.044Z,74.76
2022-11-28T14:53:45.406Z,75.01
2022-11-28T14:58:49.641Z,74.79
2022-11-28T15:04:00.092Z,75.59
2022-11-28T15:09:14.490Z,75.51
2022-11-28T15:14:22.904Z,74.89
2022-11-28T15:19:29.774Z,76.53
2022-11-28T15:24:36.168Z,75.04
2022-11-28T15:29:40.617Z,75.15
2022-11-28T15:34:45.331Z,74.56
2022-11-28T15:39:51.123Z,75.62
2022-11-28T15:44:57.542Z,75.71
2022-11-28T15:50:02.979Z,76.02
2022-11-28T15:55:17.709Z,76.00
2022-11-28T16:00:21.941Z,76.66
2022-11-28T16:05:25.093Z,75.84
2022-11-28T16:10:34.384Z,76.58
2022-11-28T16:15:38.148Z,75.85
2022-11-28T16:20:41.220Z,74.07
2022-11-28T16:25:46.932Z,75.36
2022-11-28T16:30:51.191Z,75.52
2022-11-28T16:35:54.163Z,74.48
2022-11-28T16:41:02.052Z,75.46
2022-11-28T16:46:07.820Z,76.32
2022-11-28T16:51:33.807Z,75.41
2022-11-28T16:56:45.402Z,75.63
2022-11-28T17:01:52.876Z,76.05
2022-11-28T17:06:57.620Z,76.46
2022-11-28T17:12:05.632Z,76.49
2022-11-28T17:17:13.342Z,77.11
2022-11-28T17:22:18.281Z,76.73
2022-11-28T17:27:22.650Z,77.26
2022-11-28T17:32:25.762Z,76.94
2022-11-28T17:37:28.620Z,77.00
2022-11-28T17:42:33.024Z,77.49
2022-11-28T17:47:35.975Z,76.62
2022-11-28T17:52:38.975Z,76.70
2022-11-28T17:57:44.040Z,76.43
2022-11-28T18:02:47.677Z,77.30
2022-11-28T18:07:50.734Z,77.77
2022-11-28T18:12:55.462Z,78.59
2022-11-28T18:18:01.616Z,79.32
2022-11-28T18:23:04.655Z,79.39
2022-11-28T18:28:08.947Z,79.08
2022-11-28T18:33:12.500Z,79.29
2022-11-28T18:38:15.436Z,79.75
2022-11-28T18:43:19.683Z,80.19
2022-11-28T18:48:22.541Z,79.69
2022-11-28T18:53:25.685Z,79.61
2022-11-28T18:58:30.782Z,80.06
2022-11-28T19:03:33.827Z,78.24
2022-11-28T19:08:37.569Z,78.43
2022-11-28T19:13:42.683Z,78.95
2022-11-28T19:18:46.958Z,79.89
2022-11-28T19:23:51.416Z,79.82
2022-11-28T19:28:57.534Z,79.82
2022-11-28T19:34:03.513Z,79.73
2022-11-28T19:39:08.259Z,79.73
2022-11-28T19:44:12.918Z,80.56
2022-11-28T19:49:19.406Z,80.73
2022-11-28T19:54:22.491Z,80.70
2022-11-28T19:59:27.361Z,82.32
2022-11-28T20:04:30.615Z,82.01
2022-11-28T20:09:33.916Z,82.32
2022-11-28T20:14:38.259Z,80.87
2022-11-28T20:19:41.645Z,81.13
2022-11-28T20:24:44.957Z,80.81
2022-11-28T20:29:49.361Z,80.77
2022-11-28T20:34:52.614Z,81.12
2022-11-28T20:39:57.367Z,81.27
2022-11-28T20:45:01.763Z,81.49
2022-11-28T20:50:07.110Z,81.65
2022-11-28T20:55:10.222Z,81.35
2022-11-28T21:00:15.814Z,82.29
2022-11-28T21:05:19.652Z,82.08
2022-11-28T21:10:22.611Z,82.74
2022-11-28T21:15:26.875Z,83.72
2022-11-28T21:20:29.834Z,81.52
2022-11-28T21:25:32.748Z,78.62
2022-11-28T21:30:41.224Z,78.95
2022-11-28T21:35:44.104Z,80.45
2022-11-28T21:40:53.246Z,80.18
2022-11-28T21:46:02.329Z,79.72
2022-11-28T21:51:06.445Z,78.68
2022-11-28T21:56:10.588Z,77.78
2022-11-28T22:01:15.944Z,79.59
2022-11-28T22:06:21.392Z,80.22
2022-11-28T22:11:25.192Z,80.31
2022-11-28T22:16:30.759Z,81.75
2022-11-28T22:21:54.002Z,81.25
2022-11-28T22:26:57.447Z,81.53
2022-11-28T22:32:01.759Z,81.25
2022-11-28T22:37:05.385Z,81.20
2022-11-28T22:42:08.432Z,80.86
2022-11-28T22:47:12.672Z,80.84
2022-11-28T22:52:15.606Z,80.66
2022-11-28T22:57:18.783Z,80.65
2022-11-28T23:02:23.613Z,81.21
2022-11-28T23:07:26.706Z,81.64
2022-11-28T23:12:29.816Z,80.65
2022-11-28T23:17:35.012Z,81.25
2022-11-28T23:22:37.978Z,81.03
2022-11-28T23:27:40.898Z,81.55
2022-11-28T23:32:46.049Z,81.26
2022-11-28T23:37:48.984Z,81.48
2022-11-28T23:42:51.946Z,81.78
2022-11-28T23:47:56.207Z,81.46
2022-11-28T23:52:59.158Z,81.63
2022-11-28T23:58:02.333Z,82.72
